^^
Saratoga-Weather Station Historical Data
Daily Summary for June 16, 2020 Units:  Both    English   Metric
Daily Weekly Monthly Yearly Custom
  High: Low: Average:
Temperature: 68.4 °F /  20.2 °C 42.3 °F /  5.7 °C 56.7 °F /  13.7 °C
Dew Point: 44.8 °F /  7.1 °C 35.2 °F /  1.8 °C 39.6 °F /  4.2 °C
Humidity: 81% 34% 55%
Wind Speed: 6mph /  9.7km/h - 1.2mph /  2km/h
Wind Gust: 9mph /  14.5km/h - -
Wind- - SSW
Pressure: 30.2 in /  1022.7 hPa 30.1 in /  1018.6 hPa -
Precipitation: 0 in /  0.0 mm    
Historical Graphs
 
 
Tabular Data for June 16, 2020
Time Temperature Dew Point Pressure Wind Wind Speed Wind Gust Humidity Rainfall Rate (Hourly) solar
00:00 51.4 °F /  10.8 °C 35.8 °F /  2.1 °C 30.2in /  1021.0hPa Calm   3mph /  4.8km/h 55% 0in /  0.0mm 0 W/m2
00:05 51.3 °F /  10.7 °C 36.5 °F /  2.5 °C 30.2in /  1021.3hPa NNW 0.9mph /  1.4km/h 1mph /  1.6km/h 57% 0in /  0.0mm 0 W/m2
00:10 51.1 °F /  10.6 °C 35.4 °F /  1.9 °C 30.2in /  1021.3hPa NNW 2.9mph /  4.7km/h 4mph /  6.4km/h 55% 0in /  0.0mm 0 W/m2
00:15 51.3 °F /  10.7 °C 35.2 °F /  1.8 °C 30.2in /  1021.3hPa Calm   4mph /  6.4km/h 54% 0in /  0.0mm 0 W/m2
00:20 51.4 °F /  10.8 °C 35.8 °F /  2.1 °C 30.2in /  1021.3hPa Calm   4mph /  6.4km/h 55% 0in /  0.0mm 0 W/m2
00:25 51.4 °F /  10.8 °C 35.8 °F /  2.1 °C 30.2in /  1021.3hPa NE 0.9mph /  1.4km/h 3mph /  4.8km/h 55% 0in /  0.0mm 0 W/m2
00:30 51.3 °F /  10.7 °C 35.6 °F /  2 °C 30.2in /  1021.3hPa North 0.9mph /  1.4km/h 4mph /  6.4km/h 55% 0in /  0.0mm 0 W/m2
00:35 51.3 °F /  10.7 °C 35.6 °F /  2 °C 30.2in /  1021.3hPa NW 2.9mph /  4.7km/h 3mph /  4.8km/h 55% 0in /  0.0mm 0 W/m2
00:40 51.1 °F /  10.6 °C 36 °F /  2.2 °C 30.2in /  1021.3hPa South 0.9mph /  1.4km/h 2mph /  3.2km/h 56% 0in /  0.0mm 0 W/m2
00:45 51.1 °F /  10.6 °C 36.3 °F /  2.4 °C 30.2in /  1021.7hPa NNE 0.9mph /  1.4km/h 2mph /  3.2km/h 57% 0in /  0.0mm 0 W/m2
00:50 50.9 °F /  10.5 °C 36.1 °F /  2.3 °C 30.2in /  1021.7hPa NW 2mph /  3.2km/h 2mph /  3.2km/h 57% 0in /  0.0mm 0 W/m2
00:55 50.7 °F /  10.4 °C 36 °F /  2.2 °C 30.2in /  1021.7hPa WNW 2.9mph /  4.7km/h 4mph /  6.4km/h 57% 0in /  0.0mm 0 W/m2
01:00 50.5 °F /  10.3 °C 36.3 °F /  2.4 °C 30.2in /  1021.7hPa NNW 2.9mph /  4.7km/h 4mph /  6.4km/h 58% 0in /  0.0mm 0 W/m2
01:05 50.4 °F /  10.2 °C 36.5 °F /  2.5 °C 30.2in /  1021.7hPa Calm   2mph /  3.2km/h 59% 0in /  0.0mm 0 W/m2
01:11 50.2 °F /  10.1 °C 36.3 °F /  2.4 °C 30.2in /  1021.7hPa WNW 2mph /  3.2km/h 4mph /  6.4km/h 59% 0in /  0.0mm 0 W/m2
01:16 50.2 °F /  10.1 °C 36.3 °F /  2.4 °C 30.2in /  1021.7hPa Calm   2mph /  3.2km/h 59% 0in /  0.0mm 0 W/m2
01:21 50 °F /  10 °C 36.3 °F /  2.4 °C 30.2in /  1021.7hPa West 2mph /  3.2km/h 4mph /  6.4km/h 59% 0in /  0.0mm 0 W/m2
01:26 49.8 °F /  9.9 °C 36.9 °F /  2.7 °C 30.2in /  1021.7hPa SE 2mph /  3.2km/h 2mph /  3.2km/h 61% 0in /  0.0mm 0 W/m2
01:31 49.6 °F /  9.8 °C 36.3 °F /  2.4 °C 30.2in /  1021.7hPa ESE 0.9mph /  1.4km/h 2mph /  3.2km/h 60% 0in /  0.0mm 0 W/m2
01:36 49.6 °F /  9.8 °C 36.3 °F /  2.4 °C 30.2in /  1021.7hPa NW 0.9mph /  1.4km/h 4mph /  6.4km/h 60% 0in /  0.0mm 0 W/m2
01:41 49.5 °F /  9.7 °C 37 °F /  2.8 °C 30.2in /  1021.7hPa West 0.9mph /  1.4km/h 1mph /  1.6km/h 62% 0in /  0.0mm 0 W/m2
01:46 49.3 °F /  9.6 °C 37.2 °F /  2.9 °C 30.2in /  1021.7hPa SW 0.9mph /  1.4km/h 4mph /  6.4km/h 63% 0in /  0.0mm 0 W/m2
01:51 48.7 °F /  9.3 °C 37 °F /  2.8 °C 30.2in /  1021.7hPa SSW 0.9mph /  1.4km/h 2mph /  3.2km/h 64% 0in /  0.0mm 0 W/m2
01:56 48.4 °F /  9.1 °C 37.2 °F /  2.9 °C 30.2in /  1021.7hPa SSW 0.9mph /  1.4km/h 2mph /  3.2km/h 65% 0in /  0.0mm 0 W/m2
02:01 48 °F /  8.9 °C 36.9 °F /  2.7 °C 30.2in /  1021.7hPa Calm   3mph /  4.8km/h 65% 0in /  0.0mm 0 W/m2
02:06 48 °F /  8.9 °C 36.9 °F /  2.7 °C 30.2in /  1021.7hPa Calm   1mph /  1.6km/h 65% 0in /  0.0mm 0 W/m2
02:11 48.2 °F /  9 °C 37 °F /  2.8 °C 30.2in /  1021.7hPa Calm   1mph /  1.6km/h 65% 0in /  0.0mm 0 W/m2
02:16 48.4 °F /  9.1 °C 36.3 °F /  2.4 °C 30.2in /  1021.7hPa Calm   2mph /  3.2km/h 63% 0in /  0.0mm 0 W/m2
02:21 48.4 °F /  9.1 °C 36.3 °F /  2.4 °C 30.2in /  1021.7hPa ENE 0.9mph /  1.4km/h 1mph /  1.6km/h 63% 0in /  0.0mm 0 W/m2
02:26 48.4 °F /  9.1 °C 36.3 °F /  2.4 °C 30.2in /  1021.7hPa Calm   1mph /  1.6km/h 63% 0in /  0.0mm 0 W/m2
02:31 48.2 °F /  9 °C 36.7 °F /  2.6 °C 30.2in /  1021.7hPa Calm   1mph /  1.6km/h 64% 0in /  0.0mm 0 W/m2
02:36 48 °F /  8.9 °C 36.5 °F /  2.5 °C 30.2in /  1021.7hPa East 0.9mph /  1.4km/h 2mph /  3.2km/h 64% 0in /  0.0mm 0 W/m2
02:41 48 °F /  8.9 °C 36.5 °F /  2.5 °C 30.2in /  1021.7hPa Calm     64% 0in /  0.0mm 0 W/m2
02:46 47.8 °F /  8.8 °C 36.7 °F /  2.6 °C 30.2in /  1021.7hPa West 0.9mph /  1.4km/h 2mph /  3.2km/h 65% 0in /  0.0mm 0 W/m2
02:51 47.7 °F /  8.7 °C 36.9 °F /  2.7 °C 30.2in /  1021.7hPa WSW 0.9mph /  1.4km/h 2mph /  3.2km/h 66% 0in /  0.0mm 0 W/m2
02:56 47.5 °F /  8.6 °C 36.7 °F /  2.6 °C 30.2in /  1021.7hPa WNW 0.9mph /  1.4km/h 2mph /  3.2km/h 66% 0in /  0.0mm 0 W/m2
03:01 47.7 °F /  8.7 °C 36.9 °F /  2.7 °C 30.2in /  1021.7hPa WNW 0.9mph /  1.4km/h 2mph /  3.2km/h 66% 0in /  0.0mm 0 W/m2
03:06 47.5 °F /  8.6 °C 37 °F /  2.8 °C 30.2in /  1021.7hPa SW 0.9mph /  1.4km/h 3mph /  4.8km/h 67% 0in /  0.0mm 0 W/m2
03:11 47.3 °F /  8.5 °C 36.9 °F /  2.7 °C 30.2in /  1021.7hPa West 2mph /  3.2km/h 2mph /  3.2km/h 67% 0in /  0.0mm 0 W/m2
03:16 47.1 °F /  8.4 °C 36.7 °F /  2.6 °C 30.2in /  1021.7hPa Calm   3mph /  4.8km/h 67% 0in /  0.0mm 0 W/m2
03:21 46.9 °F /  8.3 °C 36.9 °F /  2.7 °C 30.2in /  1021.7hPa Calm     68% 0in /  0.0mm 0 W/m2
03:26 46.6 °F /  8.1 °C 36.5 °F /  2.5 °C 30.2in /  1021.3hPa Calm   1mph /  1.6km/h 68% 0in /  0.0mm 0 W/m2
03:31 46.6 °F /  8.1 °C 37.4 °F /  3 °C 30.2in /  1021.7hPa WSW 0.9mph /  1.4km/h 2mph /  3.2km/h 70% 0in /  0.0mm 0 W/m2
03:36 46.2 °F /  7.9 °C 36.7 °F /  2.6 °C 30.2in /  1021.3hPa Calm   2mph /  3.2km/h 69% 0in /  0.0mm 0 W/m2
03:41 46.2 °F /  7.9 °C 36.7 °F /  2.6 °C 30.2in /  1021.7hPa Calm     69% 0in /  0.0mm 0 W/m2
03:46 46.2 °F /  7.9 °C 36.3 °F /  2.4 °C 30.2in /  1021.7hPa Calm   2mph /  3.2km/h 68% 0in /  0.0mm 0 W/m2
03:51 46.4 °F /  8 °C 36.9 °F /  2.7 °C 30.2in /  1021.7hPa ESE 0.9mph /  1.4km/h 2mph /  3.2km/h 69% 0in /  0.0mm 0 W/m2
03:56 46.2 °F /  7.9 °C 37 °F /  2.8 °C 30.2in /  1021.7hPa Calm   1mph /  1.6km/h 70% 0in /  0.0mm 0 W/m2
04:01 46 °F /  7.8 °C 36.9 °F /  2.7 °C 30.2in /  1021.7hPa Calm   1mph /  1.6km/h 70% 0in /  0.0mm 0 W/m2
04:06 45.7 °F /  7.6 °C 36.9 °F /  2.7 °C 30.2in /  1021.3hPa NNW 0.9mph /  1.4km/h 2mph /  3.2km/h 71% 0in /  0.0mm 0 W/m2
04:11 45.3 °F /  7.4 °C 36.5 °F /  2.5 °C 30.2in /  1021.3hPa Calm   1mph /  1.6km/h 71% 0in /  0.0mm 0 W/m2
04:16 45.3 °F /  7.4 °C 36.9 °F /  2.7 °C 30.2in /  1021.3hPa NNW 0.9mph /  1.4km/h 1mph /  1.6km/h 72% 0in /  0.0mm 0 W/m2
04:21 45.1 °F /  7.3 °C 36.7 °F /  2.6 °C 30.2in /  1021.3hPa Calm   2mph /  3.2km/h 72% 0in /  0.0mm 0 W/m2
04:26 45 °F /  7.2 °C 36.5 °F /  2.5 °C 30.2in /  1021.7hPa Calm   1mph /  1.6km/h 72% 0in /  0.0mm 0 W/m2
04:31 45 °F /  7.2 °C 36.5 °F /  2.5 °C 30.2in /  1021.7hPa West 0.9mph /  1.4km/h 1mph /  1.6km/h 72% 0in /  0.0mm 0 W/m2
04:36 45 °F /  7.2 °C 36.5 °F /  2.5 °C 30.2in /  1021.7hPa West 0.9mph /  1.4km/h 2mph /  3.2km/h 72% 0in /  0.0mm 0 W/m2
04:41 45 °F /  7.2 °C 36.5 °F /  2.5 °C 30.2in /  1021.3hPa West 0.9mph /  1.4km/h 2mph /  3.2km/h 72% 0in /  0.0mm 0 W/m2
04:47 44.8 °F /  7.1 °C 36.7 °F /  2.6 °C 30.2in /  1021.3hPa West 0.9mph /  1.4km/h 2mph /  3.2km/h 73% 0in /  0.0mm 0 W/m2
04:52 44.6 °F /  7 °C 36.5 °F /  2.5 °C 30.2in /  1021.3hPa Calm   1mph /  1.6km/h 73% 0in /  0.0mm 0 W/m2
04:57 44.6 °F /  7 °C 36.5 °F /  2.5 °C 30.2in /  1021.3hPa West 0.9mph /  1.4km/h 2mph /  3.2km/h 73% 0in /  0.0mm 0 W/m2
05:02 44.4 °F /  6.9 °C 36.7 °F /  2.6 °C 30.2in /  1021.3hPa West 0.9mph /  1.4km/h 1mph /  1.6km/h 74% 0in /  0.0mm 0 W/m2
05:07 44.2 °F /  6.8 °C 36.5 °F /  2.5 °C 30.2in /  1021.3hPa WSW 0.9mph /  1.4km/h 1mph /  1.6km/h 74% 0in /  0.0mm 0 W/m2
05:12 44.2 °F /  6.8 °C 36.5 °F /  2.5 °C 30.2in /  1021.3hPa WSW 0.9mph /  1.4km/h 2mph /  3.2km/h 74% 0in /  0.0mm 0 W/m2
05:17 44.1 °F /  6.7 °C 36.3 °F /  2.4 °C 30.2in /  1021.3hPa Calm     74% 0in /  0.0mm 0 W/m2
05:22 43.9 °F /  6.6 °C 36.5 °F /  2.5 °C 30.2in /  1021.3hPa WSW 0.9mph /  1.4km/h 2mph /  3.2km/h 75% 0in /  0.0mm 0 W/m2
05:27 43.5 °F /  6.4 °C 36.5 °F /  2.5 °C 30.2in /  1021.3hPa WSW 0.9mph /  1.4km/h 1mph /  1.6km/h 76% 0in /  0.0mm 0 W/m2
05:32 43.3 °F /  6.3 °C 36.3 °F /  2.4 °C 30.2in /  1021.3hPa Calm   1mph /  1.6km/h 76% 0in /  0.0mm 0 W/m2
05:37 43.3 °F /  6.3 °C 36.3 °F /  2.4 °C 30.2in /  1021.3hPa WSW 0.9mph /  1.4km/h 2mph /  3.2km/h 76% 0in /  0.0mm 0 W/m2
05:42 43.3 °F /  6.3 °C 36.3 °F /  2.4 °C 30.2in /  1021.3hPa Calm   1mph /  1.6km/h 76% 0in /  0.0mm 0 W/m2
05:47 43.3 °F /  6.3 °C 36.3 °F /  2.4 °C 30.2in /  1021.3hPa Calm   2mph /  3.2km/h 76% 0in /  0.0mm 0 W/m2
05:52 43.3 °F /  6.3 °C 36.7 °F /  2.6 °C 30.2in /  1021.3hPa Calm   1mph /  1.6km/h 77% 0in /  0.0mm 5 W/m2
05:57 43.2 °F /  6.2 °C 36.5 °F /  2.5 °C 30.2in /  1021.3hPa Calm   1mph /  1.6km/h 77% 0in /  0.0mm 7 W/m2
06:02 43 °F /  6.1 °C 36.7 °F /  2.6 °C 30.2in /  1021.3hPa Calm   1mph /  1.6km/h 78% 0in /  0.0mm 9 W/m2
06:07 42.8 °F /  6 °C 36.5 °F /  2.5 °C 30.2in /  1021.3hPa Calm   1mph /  1.6km/h 78% 0in /  0.0mm 12 W/m2
06:12 42.6 °F /  5.9 °C 36.3 °F /  2.4 °C 30.2in /  1021.3hPa Calm     78% 0in /  0.0mm 14 W/m2
06:17 42.4 °F /  5.8 °C 36.1 °F /  2.3 °C 30.2in /  1021.3hPa WSW 1mph /  1.6km/h 1mph /  1.6km/h 78% 0in /  0.0mm 16 W/m2
06:22 42.4 °F /  5.8 °C 36.1 °F /  2.3 °C 30.2in /  1021.3hPa Calm     78% 0in /  0.0mm 19 W/m2
06:27 42.3 °F /  5.7 °C 36.1 °F /  2.3 °C 30.2in /  1021.3hPa Calm     79% 0in /  0.0mm 21 W/m2
06:32 42.3 °F /  5.7 °C 36.5 °F /  2.5 °C 30.2in /  1021.3hPa Calm   1mph /  1.6km/h 80% 0in /  0.0mm 23 W/m2
06:37 42.3 °F /  5.7 °C 36.5 °F /  2.5 °C 30.2in /  1021.3hPa Calm   1mph /  1.6km/h 80% 0in /  0.0mm 25 W/m2
06:42 42.3 °F /  5.7 °C 36.9 °F /  2.7 °C 30.2in /  1021.3hPa Calm     81% 0in /  0.0mm 28 W/m2
06:47 42.4 °F /  5.8 °C 36.7 °F /  2.6 °C 30.2in /  1021.3hPa Calm   1mph /  1.6km/h 80% 0in /  0.0mm 30 W/m2
06:52 42.6 °F /  5.9 °C 36.9 °F /  2.7 °C 30.2in /  1021.7hPa Calm     80% 0in /  0.0mm 32 W/m2
06:57 43.2 °F /  6.2 °C 37 °F /  2.8 °C 30.2in /  1021.7hPa Calm     79% 0in /  0.0mm 33 W/m2
07:02 43.5 °F /  6.4 °C 37 °F /  2.8 °C 30.2in /  1021.7hPa Calm     78% 0in /  0.0mm 35 W/m2
07:07 43.7 °F /  6.5 °C 37 °F /  2.8 °C 30.2in /  1021.7hPa Calm     77% 0in /  0.0mm 35 W/m2
07:12 43.9 °F /  6.6 °C 36.9 °F /  2.7 °C 30.2in /  1021.7hPa Calm     76% 0in /  0.0mm 37 W/m2
07:17 44.1 °F /  6.7 °C 36.7 °F /  2.6 °C 30.2in /  1021.7hPa Calm   1mph /  1.6km/h 75% 0in /  0.0mm 39 W/m2
07:22 44.4 °F /  6.9 °C 36.7 °F /  2.6 °C 30.2in /  1022.0hPa WSW 0.9mph /  1.4km/h 2mph /  3.2km/h 74% 0in /  0.0mm 40 W/m2
07:28 45.1 °F /  7.3 °C 36.7 °F /  2.6 °C 30.2in /  1022.0hPa WNW 0.9mph /  1.4km/h 2mph /  3.2km/h 72% 0in /  0.0mm 42 W/m2
07:33 45.7 °F /  7.6 °C 37.2 °F /  2.9 °C 30.2in /  1022.0hPa WNW 0.9mph /  1.4km/h 3mph /  4.8km/h 72% 0in /  0.0mm 44 W/m2
07:38 45.9 °F /  7.7 °C 37 °F /  2.8 °C 30.2in /  1022.0hPa WNW 0.9mph /  1.4km/h 1mph /  1.6km/h 71% 0in /  0.0mm 46 W/m2
07:43 46.2 °F /  7.9 °C 37 °F /  2.8 °C 30.2in /  1022.0hPa WNW 0.9mph /  1.4km/h 3mph /  4.8km/h 70% 0in /  0.0mm 47 W/m2
07:48 46.6 °F /  8.1 °C 37.4 °F /  3 °C 30.2in /  1022.0hPa WNW 0.9mph /  1.4km/h 2mph /  3.2km/h 70% 0in /  0.0mm 158 W/m2
07:53 46.8 °F /  8.2 °C 37.6 °F /  3.1 °C 30.2in /  1022.0hPa NW 2mph /  3.2km/h 2mph /  3.2km/h 70% 0in /  0.0mm 251 W/m2
07:58 47.1 °F /  8.4 °C 37.4 °F /  3 °C 30.2in /  1022.4hPa NW 2mph /  3.2km/h 2mph /  3.2km/h 69% 0in /  0.0mm 269 W/m2
08:03 47.7 °F /  8.7 °C 37.9 °F /  3.3 °C 30.2in /  1022.4hPa Calm   1mph /  1.6km/h 69% 0in /  0.0mm 281 W/m2
08:08 47.8 °F /  8.8 °C 38.1 °F /  3.4 °C 30.2in /  1022.4hPa Calm   1mph /  1.6km/h 69% 0in /  0.0mm 297 W/m2
08:13 48.6 °F /  9.2 °C 38.8 °F /  3.8 °C 30.2in /  1022.4hPa Calm   1mph /  1.6km/h 69% 0in /  0.0mm 311 W/m2
08:18 49.1 °F /  9.5 °C 39.4 °F /  4.1 °C 30.2in /  1022.4hPa Calm     69% 0in /  0.0mm 323 W/m2
08:23 49.8 °F /  9.9 °C 39.4 °F /  4.1 °C 30.2in /  1022.4hPa Calm   1mph /  1.6km/h 67% 0in /  0.0mm 338 W/m2
08:28 50.5 °F /  10.3 °C 39.2 °F /  4 °C 30.2in /  1022.4hPa Calm     65% 0in /  0.0mm 353 W/m2
08:33 51.1 °F /  10.6 °C 39.4 °F /  4.1 °C 30.2in /  1022.4hPa Calm     64% 0in /  0.0mm 364 W/m2
08:38 51.4 °F /  10.8 °C 38.5 °F /  3.6 °C 30.2in /  1022.4hPa ENE 2.9mph /  4.7km/h 3mph /  4.8km/h 61% 0in /  0.0mm 380 W/m2
08:43 51.8 °F /  11 °C 38.8 °F /  3.8 °C 30.2in /  1022.4hPa NE 2mph /  3.2km/h 4mph /  6.4km/h 61% 0in /  0.0mm 394 W/m2
08:48 52.2 °F /  11.2 °C 39.2 °F /  4 °C 30.2in /  1022.7hPa NE 2mph /  3.2km/h 2mph /  3.2km/h 61% 0in /  0.0mm 408 W/m2
08:53 52 °F /  11.1 °C 38.1 °F /  3.4 °C 30.2in /  1022.7hPa ENE 0.9mph /  1.4km/h 1mph /  1.6km/h 59% 0in /  0.0mm 418 W/m2
08:58 52.2 °F /  11.2 °C 38.3 °F /  3.5 °C 30.2in /  1022.7hPa Calm   3mph /  4.8km/h 59% 0in /  0.0mm 434 W/m2
09:03 52.3 °F /  11.3 °C 38.5 °F /  3.6 °C 30.2in /  1022.7hPa East 2mph /  3.2km/h 3mph /  4.8km/h 59% 0in /  0.0mm 446 W/m2
09:08 52.7 °F /  11.5 °C 38.3 °F /  3.5 °C 30.2in /  1022.7hPa ESE 4mph /  6.4km/h 6mph /  9.7km/h 58% 0in /  0.0mm 457 W/m2
09:13 52.9 °F /  11.6 °C 38.5 °F /  3.6 °C 30.2in /  1022.7hPa ENE 0.9mph /  1.4km/h 4mph /  6.4km/h 58% 0in /  0.0mm 468 W/m2
09:18 53.2 °F /  11.8 °C 38.8 °F /  3.8 °C 30.2in /  1022.7hPa ESE 2mph /  3.2km/h 2mph /  3.2km/h 58% 0in /  0.0mm 483 W/m2
09:23 53.6 °F /  12 °C 39.2 °F /  4 °C 30.2in /  1022.7hPa East 2.9mph /  4.7km/h 3mph /  4.8km/h 58% 0in /  0.0mm 496 W/m2
09:28 54 °F /  12.2 °C 38.7 °F /  3.7 °C 30.2in /  1022.7hPa ESE 6mph /  9.7km/h 6mph /  9.7km/h 56% 0in /  0.0mm 510 W/m2
09:33 54.3 °F /  12.4 °C 39.9 °F /  4.4 °C 30.2in /  1022.7hPa East 2mph /  3.2km/h 4mph /  6.4km/h 58% 0in /  0.0mm 519 W/m2
09:39 54.9 °F /  12.7 °C 39.9 °F /  4.4 °C 30.2in /  1022.7hPa NNW 2mph /  3.2km/h 5mph /  8km/h 57% 0in /  0.0mm 534 W/m2
09:44 55.2 °F /  12.9 °C 39.7 °F /  4.3 °C 30.2in /  1022.7hPa SE 2.9mph /  4.7km/h 4mph /  6.4km/h 56% 0in /  0.0mm 545 W/m2
09:49 55.4 °F /  13 °C 39.6 °F /  4.2 °C 30.2in /  1022.7hPa ENE 0.9mph /  1.4km/h 4mph /  6.4km/h 55% 0in /  0.0mm 557 W/m2
09:54 55.2 °F /  12.9 °C 39.7 °F /  4.3 °C 30.2in /  1022.7hPa Calm   3mph /  4.8km/h 56% 0in /  0.0mm 568 W/m2
09:59 55.2 °F /  12.9 °C 39.4 °F /  4.1 °C 30.2in /  1022.7hPa ENE 0.9mph /  1.4km/h 2mph /  3.2km/h 55% 0in /  0.0mm 580 W/m2
10:04 55.8 °F /  13.2 °C 39.9 °F /  4.4 °C 30.2in /  1022.7hPa NE 0.9mph /  1.4km/h 4mph /  6.4km/h 55% 0in /  0.0mm 591 W/m2
10:09 56.3 °F /  13.5 °C 41.2 °F /  5.1 °C 30.2in /  1022.7hPa SSE 2mph /  3.2km/h 3mph /  4.8km/h 57% 0in /  0.0mm 601 W/m2
10:14 56.5 °F /  13.6 °C 40.5 °F /  4.7 °C 30.2in /  1022.7hPa East 0.9mph /  1.4km/h 3mph /  4.8km/h 55% 0in /  0.0mm 74 W/m2
10:19 56.7 °F /  13.7 °C 40.3 °F /  4.6 °C 30.2in /  1022.7hPa ENE 2.9mph /  4.7km/h 6mph /  9.7km/h 54% 0in /  0.0mm 107 W/m2
10:24 56.5 °F /  13.6 °C 41 °F /  5 °C 30.2in /  1022.7hPa ESE 2mph /  3.2km/h 4mph /  6.4km/h 56% 0in /  0.0mm 629 W/m2
10:29 56.8 °F /  13.8 °C 41.4 °F /  5.2 °C 30.2in /  1022.4hPa Calm   2mph /  3.2km/h 56% 0in /  0.0mm 642 W/m2
10:34 57.4 °F /  14.1 °C 40.8 °F /  4.9 °C 30.2in /  1022.4hPa NE 0.9mph /  1.4km/h 3mph /  4.8km/h 54% 0in /  0.0mm 652 W/m2
10:39 57.7 °F /  14.3 °C 41.2 °F /  5.1 °C 30.2in /  1022.4hPa Calm   3mph /  4.8km/h 54% 0in /  0.0mm 663 W/m2
10:44 57.9 °F /  14.4 °C 40.8 °F /  4.9 °C 30.2in /  1022.4hPa East 0.9mph /  1.4km/h 8mph /  12.9km/h 53% 0in /  0.0mm 673 W/m2
10:49 57.7 °F /  14.3 °C 40.3 °F /  4.6 °C 30.2in /  1022.4hPa ENE 2mph /  3.2km/h 5mph /  8km/h 52% 0in /  0.0mm 684 W/m2
10:54 57.9 °F /  14.4 °C 41.4 °F /  5.2 °C 30.2in /  1022.4hPa East 2mph /  3.2km/h 7mph /  11.3km/h 54% 0in /  0.0mm 693 W/m2
10:59 58.3 °F /  14.6 °C 41.2 °F /  5.1 °C 30.2in /  1022.4hPa SE 0.9mph /  1.4km/h 4mph /  6.4km/h 53% 0in /  0.0mm 703 W/m2
11:04 58.6 °F /  14.8 °C 40.6 °F /  4.8 °C 30.2in /  1022.4hPa NE 0.9mph /  1.4km/h 3mph /  4.8km/h 51% 0in /  0.0mm 710 W/m2
11:09 58.6 °F /  14.8 °C 40.6 °F /  4.8 °C 30.2in /  1022.0hPa Calm   3mph /  4.8km/h 51% 0in /  0.0mm 721 W/m2
11:14 58.8 °F /  14.9 °C 41.2 °F /  5.1 °C 30.2in /  1022.0hPa ESE 2.9mph /  4.7km/h 3mph /  4.8km/h 52% 0in /  0.0mm 728 W/m2
11:19 59.4 °F /  15.2 °C 41.7 °F /  5.4 °C 30.2in /  1022.0hPa East 0.9mph /  1.4km/h 2mph /  3.2km/h 52% 0in /  0.0mm 737 W/m2
11:24 59.7 °F /  15.4 °C 42.1 °F /  5.6 °C 30.2in /  1022.0hPa SE 2mph /  3.2km/h 4mph /  6.4km/h 52% 0in /  0.0mm 745 W/m2
11:29 60.1 °F /  15.6 °C 42.4 °F /  5.8 °C 30.2in /  1022.0hPa SSE 2mph /  3.2km/h 4mph /  6.4km/h 52% 0in /  0.0mm 754 W/m2
11:34 60.1 °F /  15.6 °C 40.8 °F /  4.9 °C 30.2in /  1021.7hPa WNW 2.9mph /  4.7km/h 3mph /  4.8km/h 49% 0in /  0.0mm 759 W/m2
11:39 59.9 °F /  15.5 °C 41.7 °F /  5.4 °C 30.2in /  1021.7hPa ENE 2mph /  3.2km/h 2mph /  3.2km/h 51% 0in /  0.0mm 768 W/m2
11:44 60.4 °F /  15.8 °C 42.8 °F /  6 °C 30.2in /  1021.7hPa SE 2mph /  3.2km/h 6mph /  9.7km/h 52% 0in /  0.0mm 773 W/m2
11:49 60.8 °F /  16 °C 41.5 °F /  5.3 °C 30.2in /  1021.7hPa ENE 2mph /  3.2km/h 4mph /  6.4km/h 49% 0in /  0.0mm 780 W/m2
11:54 61.2 °F /  16.2 °C 43 °F /  6.1 °C 30.2in /  1021.7hPa East 2.9mph /  4.7km/h 6mph /  9.7km/h 51% 0in /  0.0mm 789 W/m2
11:59 61.5 °F /  16.4 °C 41.2 °F /  5.1 °C 30.2in /  1021.7hPa WSW 0.9mph /  1.4km/h 2mph /  3.2km/h 47% 0in /  0.0mm 791 W/m2
12:04 61.7 °F /  16.5 °C 42.3 °F /  5.7 °C 30.2in /  1021.7hPa NNE 2mph /  3.2km/h 6mph /  9.7km/h 49% 0in /  0.0mm 800 W/m2
12:09 62.4 °F /  16.9 °C 41.4 °F /  5.2 °C 30.2in /  1021.7hPa Calm   2mph /  3.2km/h 46% 0in /  0.0mm 803 W/m2
12:14 62.8 °F /  17.1 °C 40.5 °F /  4.7 °C 30.2in /  1021.7hPa NE 0.9mph /  1.4km/h 6mph /  9.7km/h 44% 0in /  0.0mm 807 W/m2
12:19 62.8 °F /  17.1 °C 41.7 °F /  5.4 °C 30.2in /  1021.7hPa SSE 0.9mph /  1.4km/h 3mph /  4.8km/h 46% 0in /  0.0mm 812 W/m2
12:24 63.1 °F /  17.3 °C 41.5 °F /  5.3 °C 30.2in /  1021.7hPa NE 0.9mph /  1.4km/h 3mph /  4.8km/h 45% 0in /  0.0mm 816 W/m2
12:29 63.3 °F /  17.4 °C 42.3 °F /  5.7 °C 30.2in /  1021.3hPa Calm   1mph /  1.6km/h 46% 0in /  0.0mm 817 W/m2
12:34 63.1 °F /  17.3 °C 40.3 °F /  4.6 °C 30.2in /  1021.3hPa SW 2mph /  3.2km/h 5mph /  8km/h 43% 0in /  0.0mm 823 W/m2
12:39 63.3 °F /  17.4 °C 41.5 °F /  5.3 °C 30.2in /  1021.3hPa Calm   1mph /  1.6km/h 45% 0in /  0.0mm 828 W/m2
12:44 63.3 °F /  17.4 °C 40.5 °F /  4.7 °C 30.2in /  1021.3hPa West 0.9mph /  1.4km/h 3mph /  4.8km/h 43% 0in /  0.0mm 830 W/m2
12:49 63.3 °F /  17.4 °C 39.9 °F /  4.4 °C 30.2in /  1021.3hPa North 0.9mph /  1.4km/h 4mph /  6.4km/h 42% 0in /  0.0mm 833 W/m2
12:54 63.3 °F /  17.4 °C 41 °F /  5 °C 30.2in /  1021.3hPa NNE 2mph /  3.2km/h 3mph /  4.8km/h 44% 0in /  0.0mm 833 W/m2
12:59 63.9 °F /  17.7 °C 39.7 °F /  4.3 °C 30.2in /  1021.3hPa Calm   8mph /  12.9km/h 41% 0in /  0.0mm 837 W/m2
13:04 64 °F /  17.8 °C 41.7 °F /  5.4 °C 30.2in /  1021.3hPa West 6mph /  9.7km/h 8mph /  12.9km/h 44% 0in /  0.0mm 835 W/m2
13:09 64 °F /  17.8 °C 40.5 °F /  4.7 °C 30.2in /  1021.3hPa SW 4mph /  6.4km/h 8mph /  12.9km/h 42% 0in /  0.0mm 833 W/m2
13:14 63.7 °F /  17.6 °C 40.8 °F /  4.9 °C 30.2in /  1021.3hPa West 0.9mph /  1.4km/h 3mph /  4.8km/h 43% 0in /  0.0mm 830 W/m2
13:19 63.7 °F /  17.6 °C 41.4 °F /  5.2 °C 30.2in /  1021.3hPa East 2.9mph /  4.7km/h 8mph /  12.9km/h 44% 0in /  0.0mm 838 W/m2
13:24 63.9 °F /  17.7 °C 41 °F /  5 °C 30.2in /  1021.3hPa WNW 2mph /  3.2km/h 7mph /  11.3km/h 43% 0in /  0.0mm 838 W/m2
13:29 63.7 °F /  17.6 °C 40.8 °F /  4.9 °C 30.2in /  1021.3hPa SW 0.9mph /  1.4km/h 4mph /  6.4km/h 43% 0in /  0.0mm 838 W/m2
13:34 63.9 °F /  17.7 °C 40.3 °F /  4.6 °C 30.2in /  1021.3hPa Calm   7mph /  11.3km/h 42% 0in /  0.0mm 838 W/m2
13:39 63.9 °F /  17.7 °C 42.6 °F /  5.9 °C 30.2in /  1021.3hPa ESE 2mph /  3.2km/h 4mph /  6.4km/h 46% 0in /  0.0mm 840 W/m2
13:44 64.2 °F /  17.9 °C 41.9 °F /  5.5 °C 30.2in /  1021.0hPa ESE 0.9mph /  1.4km/h 1mph /  1.6km/h 44% 0in /  0.0mm 837 W/m2
13:49 64.8 °F /  18.2 °C 41.2 °F /  5.1 °C 30.2in /  1021.0hPa WSW 2mph /  3.2km/h 3mph /  4.8km/h 42% 0in /  0.0mm 838 W/m2
13:54 64.9 °F /  18.3 °C 41.9 °F /  5.5 °C 30.2in /  1021.0hPa NNW 2mph /  3.2km/h 3mph /  4.8km/h 43% 0in /  0.0mm 840 W/m2
13:59 65.1 °F /  18.4 °C 40.8 °F /  4.9 °C 30.2in /  1021.0hPa East 4mph /  6.4km/h 7mph /  11.3km/h 41% 0in /  0.0mm 837 W/m2
14:04 65.1 °F /  18.4 °C 42.1 °F /  5.6 °C 30.1in /  1020.7hPa SE 2mph /  3.2km/h 4mph /  6.4km/h 43% 0in /  0.0mm 831 W/m2
14:09 65.5 °F /  18.6 °C 41.7 °F /  5.4 °C 30.2in /  1021.0hPa NE 0.9mph /  1.4km/h 4mph /  6.4km/h 42% 0in /  0.0mm 828 W/m2
14:14 65.5 °F /  18.6 °C 41.2 °F /  5.1 °C 30.1in /  1020.7hPa NNW 2mph /  3.2km/h 5mph /  8km/h 41% 0in /  0.0mm 826 W/m2
14:19 65.5 °F /  18.6 °C 41.7 °F /  5.4 °C 30.1in /  1020.7hPa NNW 4mph /  6.4km/h 4mph /  6.4km/h 42% 0in /  0.0mm 824 W/m2
14:24 65.7 °F /  18.7 °C 41.9 °F /  5.5 °C 30.1in /  1020.7hPa WNW 0.9mph /  1.4km/h 3mph /  4.8km/h 42% 0in /  0.0mm 819 W/m2
14:29 65.7 °F /  18.7 °C 41.4 °F /  5.2 °C 30.1in /  1020.7hPa Calm   9mph /  14.5km/h 41% 0in /  0.0mm 812 W/m2
14:34 65.7 °F /  18.7 °C 42.6 °F /  5.9 °C 30.1in /  1020.7hPa East 0.9mph /  1.4km/h 2mph /  3.2km/h 43% 0in /  0.0mm 812 W/m2
14:39 65.8 °F /  18.8 °C 40.8 °F /  4.9 °C 30.1in /  1020.7hPa NE 0.9mph /  1.4km/h 4mph /  6.4km/h 40% 0in /  0.0mm 809 W/m2
14:45 65.5 °F /  18.6 °C 40.5 °F /  4.7 °C 30.1in /  1020.7hPa WSW 4mph /  6.4km/h 6mph /  9.7km/h 40% 0in /  0.0mm 807 W/m2
14:50 65.5 °F /  18.6 °C 41.7 °F /  5.4 °C 30.1in /  1020.3hPa Calm   2mph /  3.2km/h 42% 0in /  0.0mm 802 W/m2
14:55 66 °F /  18.9 °C 44.1 °F /  6.7 °C 30.1in /  1020.3hPa NW 2.9mph /  4.7km/h 4mph /  6.4km/h 45% 0in /  0.0mm 803 W/m2
15:00 66.4 °F /  19.1 °C 41.4 °F /  5.2 °C 30.1in /  1020.3hPa WSW 2mph /  3.2km/h 2mph /  3.2km/h 40% 0in /  0.0mm 803 W/m2
15:05 66.9 °F /  19.4 °C 42.4 °F /  5.8 °C 30.1in /  1020.3hPa WSW 0.9mph /  1.4km/h 1mph /  1.6km/h 41% 0in /  0.0mm 789 W/m2
15:10 67.5 °F /  19.7 °C 41.7 °F /  5.4 °C 30.1in /  1020.3hPa WNW 0.9mph /  1.4km/h 4mph /  6.4km/h 39% 0in /  0.0mm 833 W/m2
15:15 67.8 °F /  19.9 °C 43.3 °F /  6.3 °C 30.1in /  1020.0hPa Calm   3mph /  4.8km/h 41% 0in /  0.0mm 798 W/m2
15:20 68.4 °F /  20.2 °C 42.4 °F /  5.8 °C 30.1in /  1020.0hPa Calm   3mph /  4.8km/h 39% 0in /  0.0mm 729 W/m2
15:25 68.4 °F /  20.2 °C 43.7 °F /  6.5 °C 30.1in /  1020.0hPa NNW 2mph /  3.2km/h 3mph /  4.8km/h 41% 0in /  0.0mm 828 W/m2
15:30 68.4 °F /  20.2 °C 43.7 °F /  6.5 °C 30.1in /  1020.0hPa ESE 2mph /  3.2km/h 5mph /  8km/h 41% 0in /  0.0mm 563 W/m2
15:35 68.2 °F /  20.1 °C 42.3 °F /  5.7 °C 30.1in /  1020.0hPa SW 2mph /  3.2km/h 4mph /  6.4km/h 39% 0in /  0.0mm 619 W/m2
15:40 67.8 °F /  19.9 °C 41.4 °F /  5.2 °C 30.1in /  1019.6hPa NNE 2.9mph /  4.7km/h 4mph /  6.4km/h 38% 0in /  0.0mm 874 W/m2
15:45 67.8 °F /  19.9 °C 41.4 °F /  5.2 °C 30.1in /  1019.6hPa NNW 2mph /  3.2km/h 7mph /  11.3km/h 38% 0in /  0.0mm 791 W/m2
15:50 67.6 °F /  19.8 °C 41.7 °F /  5.4 °C 30.1in /  1019.6hPa NNW 0.9mph /  1.4km/h 4mph /  6.4km/h 39% 0in /  0.0mm 640 W/m2
15:55 67.5 °F /  19.7 °C 41 °F /  5 °C 30.1in /  1019.6hPa NNW 2mph /  3.2km/h 2mph /  3.2km/h 38% 0in /  0.0mm 638 W/m2
16:00 67.5 °F /  19.7 °C 43 °F /  6.1 °C 30.1in /  1019.6hPa SE 0.9mph /  1.4km/h 4mph /  6.4km/h 41% 0in /  0.0mm 338 W/m2
16:05 66.9 °F /  19.4 °C 41.9 °F /  5.5 °C 30.1in /  1019.6hPa WSW 2mph /  3.2km/h 2mph /  3.2km/h 40% 0in /  0.0mm 519 W/m2
16:10 66.7 °F /  19.3 °C 41 °F /  5 °C 30.1in /  1019.6hPa SW 0.9mph /  1.4km/h 3mph /  4.8km/h 39% 0in /  0.0mm 468 W/m2
16:15 66.6 °F /  19.2 °C 40.8 °F /  4.9 °C 30.1in /  1019.3hPa NNW 0.9mph /  1.4km/h 3mph /  4.8km/h 39% 0in /  0.0mm 640 W/m2
16:21 66.7 °F /  19.3 °C 41.7 °F /  5.4 °C 30.1in /  1019.3hPa West 2mph /  3.2km/h 8mph /  12.9km/h 40% 0in /  0.0mm 327 W/m2
16:26 66.4 °F /  19.1 °C 41.4 °F /  5.2 °C 30.1in /  1019.3hPa NNE 2mph /  3.2km/h 6mph /  9.7km/h 40% 0in /  0.0mm 332 W/m2
16:31 66.4 °F /  19.1 °C 41.4 °F /  5.2 °C 30.1in /  1019.3hPa East 0.9mph /  1.4km/h 8mph /  12.9km/h 40% 0in /  0.0mm 339 W/m2
16:36 66.6 °F /  19.2 °C 41.5 °F /  5.3 °C 30.1in /  1019.3hPa West 4mph /  6.4km/h 4mph /  6.4km/h 40% 0in /  0.0mm 329 W/m2
16:41 66.6 °F /  19.2 °C 42.8 °F /  6 °C 30.1in /  1019.3hPa NNW 4mph /  6.4km/h 5mph /  8km/h 42% 0in /  0.0mm 297 W/m2
16:46 66.6 °F /  19.2 °C 42.1 °F /  5.6 °C 30.1in /  1019.3hPa WNW 2mph /  3.2km/h 6mph /  9.7km/h 41% 0in /  0.0mm 281 W/m2
16:51 66.4 °F /  19.1 °C 41.9 °F /  5.5 °C 30.1in /  1019.3hPa ENE 0.9mph /  1.4km/h 4mph /  6.4km/h 41% 0in /  0.0mm 301 W/m2
16:56 66.4 °F /  19.1 °C 42.6 °F /  5.9 °C 30.1in /  1019.3hPa WNW 2.9mph /  4.7km/h 4mph /  6.4km/h 42% 0in /  0.0mm 392 W/m2
17:01 66.4 °F /  19.1 °C 41.9 °F /  5.5 °C 30.1in /  1019.3hPa NNW 2mph /  3.2km/h 3mph /  4.8km/h 41% 0in /  0.0mm 329 W/m2
17:06 66.6 °F /  19.2 °C 42.1 °F /  5.6 °C 30.1in /  1019.3hPa WNW 2.9mph /  4.7km/h 5mph /  8km/h 41% 0in /  0.0mm 385 W/m2
17:11 66.6 °F /  19.2 °C 42.1 °F /  5.6 °C 30.1in /  1019.3hPa NW 0.9mph /  1.4km/h 2mph /  3.2km/h 41% 0in /  0.0mm 355 W/m2
17:16 66.6 °F /  19.2 °C 42.1 °F /  5.6 °C 30.1in /  1019.3hPa NNW 2.9mph /  4.7km/h 4mph /  6.4km/h 41% 0in /  0.0mm 281 W/m2
17:21 66.6 °F /  19.2 °C 42.8 °F /  6 °C 30.1in /  1019.3hPa NE 0.9mph /  1.4km/h 3mph /  4.8km/h 42% 0in /  0.0mm 220 W/m2
17:26 66.6 °F /  19.2 °C 42.1 °F /  5.6 °C 30.1in /  1019.3hPa WNW 2.9mph /  4.7km/h 3mph /  4.8km/h 41% 0in /  0.0mm 311 W/m2
17:31 66.6 °F /  19.2 °C 42.1 °F /  5.6 °C 30.1in /  1019.3hPa NE 0.9mph /  1.4km/h 3mph /  4.8km/h 41% 0in /  0.0mm 392 W/m2
17:36 66.7 °F /  19.3 °C 44.8 °F /  7.1 °C 30.1in /  1019.3hPa NNE 2mph /  3.2km/h 6mph /  9.7km/h 45% 0in /  0.0mm 315 W/m2
17:41 66.9 °F /  19.4 °C 41.9 °F /  5.5 °C 30.1in /  1019.3hPa NE 0.9mph /  1.4km/h 2mph /  3.2km/h 40% 0in /  0.0mm 288 W/m2
17:46 67.1 °F /  19.5 °C 41.9 °F /  5.5 °C 30.1in /  1019.3hPa NW 0.9mph /  1.4km/h 6mph /  9.7km/h 40% 0in /  0.0mm 359 W/m2
17:51 66.9 °F /  19.4 °C 42.4 °F /  5.8 °C 30.1in /  1019.3hPa NNW 0.9mph /  1.4km/h 5mph /  8km/h 41% 0in /  0.0mm 564 W/m2
17:56 67.5 °F /  19.7 °C 41 °F /  5 °C 30.1in /  1019.3hPa NE 0.9mph /  1.4km/h 6mph /  9.7km/h 38% 0in /  0.0mm 510 W/m2
18:01 67.6 °F /  19.8 °C 41.7 °F /  5.4 °C 30.1in /  1019.0hPa NE 2.9mph /  4.7km/h 8mph /  12.9km/h 39% 0in /  0.0mm 441 W/m2
18:06 67.6 °F /  19.8 °C 40.5 °F /  4.7 °C 30.1in /  1019.0hPa NW 4.9mph /  7.9km/h 6mph /  9.7km/h 37% 0in /  0.0mm 417 W/m2
18:11 68.2 °F /  20.1 °C 41.5 °F /  5.3 °C 30.1in /  1019.0hPa SW 0.9mph /  1.4km/h 8mph /  12.9km/h 38% 0in /  0.0mm 397 W/m2
18:16 68.4 °F /  20.2 °C 41 °F /  5 °C 30.1in /  1019.0hPa WNW 2.9mph /  4.7km/h 3mph /  4.8km/h 37% 0in /  0.0mm 385 W/m2
18:21 68.2 °F /  20.1 °C 40.3 °F /  4.6 °C 30.1in /  1019.0hPa West 2mph /  3.2km/h 7mph /  11.3km/h 36% 0in /  0.0mm 373 W/m2
18:26 68.2 °F /  20.1 °C 39.6 °F /  4.2 °C 30.1in /  1019.0hPa NNW 2mph /  3.2km/h 7mph /  11.3km/h 35% 0in /  0.0mm 362 W/m2
18:31 67.8 °F /  19.9 °C 39.2 °F /  4 °C 30.1in /  1019.0hPa West 2.9mph /  4.7km/h 8mph /  12.9km/h 35% 0in /  0.0mm 348 W/m2
18:36 67.5 °F /  19.7 °C 38.8 °F /  3.8 °C 30.1in /  1019.0hPa WNW 0.9mph /  1.4km/h 6mph /  9.7km/h 35% 0in /  0.0mm 334 W/m2
18:41 67.5 °F /  19.7 °C 39.6 °F /  4.2 °C 30.1in /  1019.0hPa NW 2mph /  3.2km/h 7mph /  11.3km/h 36% 0in /  0.0mm 320 W/m2
18:46 67.6 °F /  19.8 °C 39 °F /  3.9 °C 30.1in /  1019.0hPa NNW 2mph /  3.2km/h 4mph /  6.4km/h 35% 0in /  0.0mm 309 W/m2
18:51 67.6 °F /  19.8 °C 39.7 °F /  4.3 °C 30.1in /  1019.0hPa ENE 2mph /  3.2km/h 2mph /  3.2km/h 36% 0in /  0.0mm 294 W/m2
18:56 67.5 °F /  19.7 °C 38.8 °F /  3.8 °C 30.1in /  1019.0hPa North 2.9mph /  4.7km/h 5mph /  8km/h 35% 0in /  0.0mm 281 W/m2
19:01 67.8 °F /  19.9 °C 39.2 °F /  4 °C 30.1in /  1018.6hPa Calm   2mph /  3.2km/h 35% 0in /  0.0mm 265 W/m2
19:06 68.2 °F /  20.1 °C 38.7 °F /  3.7 °C 30.1in /  1019.0hPa NW 2mph /  3.2km/h 7mph /  11.3km/h 34% 0in /  0.0mm 257 W/m2
19:11 67.6 °F /  19.8 °C 39 °F /  3.9 °C 30.1in /  1018.6hPa WSW 4mph /  6.4km/h 7mph /  11.3km/h 35% 0in /  0.0mm 241 W/m2
19:17 67.6 °F /  19.8 °C 39 °F /  3.9 °C 30.1in /  1019.0hPa NNE 0.9mph /  1.4km/h 3mph /  4.8km/h 35% 0in /  0.0mm 227 W/m2
19:22 67.8 °F /  19.9 °C 39.9 °F /  4.4 °C 30.1in /  1019.0hPa WNW 0.9mph /  1.4km/h 7mph /  11.3km/h 36% 0in /  0.0mm 213 W/m2
19:27 67.8 °F /  19.9 °C 39.2 °F /  4 °C 30.1in /  1019.0hPa West 2mph /  3.2km/h 2mph /  3.2km/h 35% 0in /  0.0mm 195 W/m2
19:32 67.6 °F /  19.8 °C 39 °F /  3.9 °C 30.1in /  1018.6hPa NE 0.9mph /  1.4km/h 2mph /  3.2km/h 35% 0in /  0.0mm 181 W/m2
19:37 67.5 °F /  19.7 °C 38.8 °F /  3.8 °C 30.1in /  1018.6hPa Calm   2mph /  3.2km/h 35% 0in /  0.0mm 163 W/m2
19:42 67.5 °F /  19.7 °C 40.3 °F /  4.6 °C 30.1in /  1018.6hPa Calm   1mph /  1.6km/h 37% 0in /  0.0mm 155 W/m2
19:47 67.5 °F /  19.7 °C 40.3 °F /  4.6 °C 30.1in /  1019.0hPa WNW 2mph /  3.2km/h 2mph /  3.2km/h 37% 0in /  0.0mm 139 W/m2
19:52 67.5 °F /  19.7 °C 43.5 °F /  6.4 °C 30.1in /  1018.6hPa Calm   2mph /  3.2km/h 42% 0in /  0.0mm 123 W/m2
19:57 67.6 °F /  19.8 °C 43.2 °F /  6.2 °C 30.1in /  1018.6hPa WNW 0.9mph /  1.4km/h 2mph /  3.2km/h 41% 0in /  0.0mm 114 W/m2
20:02 67.6 °F /  19.8 °C 43.7 °F /  6.5 °C 30.1in /  1019.0hPa WNW 2.9mph /  4.7km/h 3mph /  4.8km/h 42% 0in /  0.0mm 100 W/m2
20:07 66.9 °F /  19.4 °C 41.2 °F /  5.1 °C 30.1in /  1019.0hPa West 2mph /  3.2km/h 6mph /  9.7km/h 39% 0in /  0.0mm 88 W/m2
20:12 66.2 °F /  19 °C 41.7 °F /  5.4 °C 30.1in /  1019.0hPa West 0.9mph /  1.4km/h 2mph /  3.2km/h 41% 0in /  0.0mm 76 W/m2
20:17 66 °F /  18.9 °C 42.8 °F /  6 °C 30.1in /  1019.0hPa West 0.9mph /  1.4km/h 6mph /  9.7km/h 43% 0in /  0.0mm 65 W/m2
20:22 65.8 °F /  18.8 °C 42.8 °F /  6 °C 30.1in /  1019.0hPa West 2mph /  3.2km/h 3mph /  4.8km/h 43% 0in /  0.0mm 54 W/m2
20:27 65.5 °F /  18.6 °C 43 °F /  6.1 °C 30.1in /  1019.0hPa WSW 2.9mph /  4.7km/h 3mph /  4.8km/h 44% 0in /  0.0mm 46 W/m2
20:32 64.9 °F /  18.3 °C 43.2 °F /  6.2 °C 30.1in /  1019.0hPa WSW 0.9mph /  1.4km/h 2mph /  3.2km/h 45% 0in /  0.0mm 37 W/m2
20:37 64.6 °F /  18.1 °C 42.3 °F /  5.7 °C 30.1in /  1019.0hPa WSW 0.9mph /  1.4km/h 3mph /  4.8km/h 44% 0in /  0.0mm 30 W/m2
20:42 64 °F /  17.8 °C 42.3 °F /  5.7 °C 30.1in /  1019.0hPa WSW 2mph /  3.2km/h 4mph /  6.4km/h 45% 0in /  0.0mm 25 W/m2
20:47 63.3 °F /  17.4 °C 42.8 °F /  6 °C 30.1in /  1019.0hPa WSW 0.9mph /  1.4km/h 2mph /  3.2km/h 47% 0in /  0.0mm 19 W/m2
20:52 63 °F /  17.2 °C 43 °F /  6.1 °C 30.1in /  1019.0hPa Calm   1mph /  1.6km/h 48% 0in /  0.0mm 16 W/m2
20:58 62.6 °F /  17 °C 42.1 °F /  5.6 °C 30.1in /  1019.0hPa Calm   2mph /  3.2km/h 47% 0in /  0.0mm 12 W/m2
21:03 62.2 °F /  16.8 °C 42.8 °F /  6 °C 30.1in /  1019.0hPa West 2mph /  3.2km/h 2mph /  3.2km/h 49% 0in /  0.0mm 11 W/m2
21:08 61.7 °F /  16.5 °C 42.3 °F /  5.7 °C 30.1in /  1019.0hPa West 0.9mph /  1.4km/h 2mph /  3.2km/h 49% 0in /  0.0mm 7 W/m2
21:13 61.2 °F /  16.2 °C 42.4 °F /  5.8 °C 30.1in /  1019.0hPa West 0.9mph /  1.4km/h 2mph /  3.2km/h 50% 0in /  0.0mm 5 W/m2
21:18 60.8 °F /  16 °C 43 °F /  6.1 °C 30.1in /  1019.0hPa West 0.9mph /  1.4km/h 2mph /  3.2km/h 52% 0in /  0.0mm 0 W/m2
21:23 60.4 °F /  15.8 °C 43.2 °F /  6.2 °C 30.1in /  1019.0hPa Calm   1mph /  1.6km/h 53% 0in /  0.0mm 0 W/m2
21:28 60.1 °F /  15.6 °C 43.3 °F /  6.3 °C 30.1in /  1019.0hPa West 0.9mph /  1.4km/h 1mph /  1.6km/h 54% 0in /  0.0mm 0 W/m2
21:33 59.5 °F /  15.3 °C 43.3 °F /  6.3 °C 30.1in /  1019.0hPa West 0.9mph /  1.4km/h 1mph /  1.6km/h 55% 0in /  0.0mm 0 W/m2
21:38 59 °F /  15 °C 43.3 °F /  6.3 °C 30.1in /  1019.3hPa West 2mph /  3.2km/h 3mph /  4.8km/h 56% 0in /  0.0mm 0 W/m2
21:43 58.6 °F /  14.8 °C 43.5 °F /  6.4 °C 30.1in /  1019.3hPa West 0.9mph /  1.4km/h 2mph /  3.2km/h 57% 0in /  0.0mm 0 W/m2
21:48 58.3 °F /  14.6 °C 43.5 °F /  6.4 °C 30.1in /  1019.3hPa West 0.9mph /  1.4km/h 3mph /  4.8km/h 58% 0in /  0.0mm 0 W/m2
21:53 57.9 °F /  14.4 °C 43.2 °F /  6.2 °C 30.1in /  1019.6hPa West 0.9mph /  1.4km/h 2mph /  3.2km/h 58% 0in /  0.0mm 0 W/m2
21:58 57.7 °F /  14.3 °C 43.5 °F /  6.4 °C 30.1in /  1019.6hPa West 0.9mph /  1.4km/h 2mph /  3.2km/h 59% 0in /  0.0mm 0 W/m2
22:03 57.6 °F /  14.2 °C 43.3 °F /  6.3 °C 30.1in /  1019.6hPa WNW 2mph /  3.2km/h 2mph /  3.2km/h 59% 0in /  0.0mm 0 W/m2
22:08 57.2 °F /  14 °C 43.5 °F /  6.4 °C 30.1in /  1019.6hPa West 2.9mph /  4.7km/h 6mph /  9.7km/h 60% 0in /  0.0mm 0 W/m2
22:13 57.2 °F /  14 °C 43.5 °F /  6.4 °C 30.1in /  1019.6hPa WNW 0.9mph /  1.4km/h 2mph /  3.2km/h 60% 0in /  0.0mm 0 W/m2
22:18 57 °F /  13.9 °C 43.7 °F /  6.5 °C 30.1in /  1019.6hPa WNW 2mph /  3.2km/h 5mph /  8km/h 61% 0in /  0.0mm 0 W/m2
22:23 56.8 °F /  13.8 °C 43.2 °F /  6.2 °C 30.1in /  1020.0hPa West 2.9mph /  4.7km/h 4mph /  6.4km/h 60% 0in /  0.0mm 0 W/m2
22:28 56.8 °F /  13.8 °C 43.2 °F /  6.2 °C 30.1in /  1020.0hPa West 4mph /  6.4km/h 6mph /  9.7km/h 60% 0in /  0.0mm 0 W/m2
22:33 57 °F /  13.9 °C 42.8 °F /  6 °C 30.1in /  1020.0hPa West 0.9mph /  1.4km/h 4mph /  6.4km/h 59% 0in /  0.0mm 0 W/m2
22:38 57 °F /  13.9 °C 41.9 °F /  5.5 °C 30.1in /  1020.0hPa WNW 2mph /  3.2km/h 6mph /  9.7km/h 57% 0in /  0.0mm 0 W/m2
22:43 57.2 °F /  14 °C 42.1 °F /  5.6 °C 30.1in /  1020.3hPa West 4mph /  6.4km/h 5mph /  8km/h 57% 0in /  0.0mm 0 W/m2
22:48 57.2 °F /  14 °C 41.7 °F /  5.4 °C 30.1in /  1020.0hPa WSW 2.9mph /  4.7km/h 5mph /  8km/h 56% 0in /  0.0mm 0 W/m2
22:53 57.2 °F /  14 °C 41.7 °F /  5.4 °C 30.1in /  1020.0hPa West 2mph /  3.2km/h 3mph /  4.8km/h 56% 0in /  0.0mm 0 W/m2
22:58 57 °F /  13.9 °C 41.5 °F /  5.3 °C 30.1in /  1020.0hPa WNW 2mph /  3.2km/h 5mph /  8km/h 56% 0in /  0.0mm 0 W/m2
Juneau County Weather
Compliments of Weather Underground - 4 mb